AXB424 VABB-VOML
Flight info
| Callsign | AXB424 |
|---|---|
| Flight time | 1h 25m |
| Altitude | 37000 |
| Route | VEVAK2A MABTA Q13 IKATI W17 MML |
| Aircraft | B38M/M-SDE1FGHILORVWXY/HB1 |
Departure
| Time | 2026-05-04 17:10 |
|---|---|
| Airport | Chhatrapati Shivaji Maharaj International Airport (VABB) |
Arrival
| Time | 2026-05-04 18:36 |
|---|---|
| Airport | Mangaluru International Airport (VOML) |
| Time | Latitude | Longitude | Altitude | Speed | Heading |
|---|---|---|---|---|---|
| 2026-05-04 16:07 | 19.09344 | 72.87261 | 52 ft | 0 kts | 306° |
| 2026-05-04 16:51 | 19.09338 | 72.87269 | 50 ft | 2 kts | 304° |
| 2026-05-04 16:51 | 19.09320 | 72.87298 | 51 ft | 2 kts | 302° |
| 2026-05-04 16:52 | 19.09305 | 72.87329 | 52 ft | 2 kts | 291° |
| 2026-05-04 16:52 | 19.09300 | 72.87346 | 49 ft | 2 kts | 270° |
| 2026-05-04 16:53 | 19.09315 | 72.87363 | 46 ft | 0 kts | 183° |
| 2026-05-04 16:56 | 19.09314 | 72.87363 | 50 ft | 1 kts | 183° |
| 2026-05-04 16:56 | 19.09148 | 72.87264 | 50 ft | 15 kts | 178° |
| 2026-05-04 16:57 | 19.09051 | 72.87288 | 49 ft | 15 kts | 119° |
| 2026-05-04 16:57 | 19.09051 | 72.87532 | 50 ft | 19 kts | 90° |
| 2026-05-04 16:58 | 19.09057 | 72.87734 | 51 ft | 0 kts | 90° |
| 2026-05-04 17:01 | 19.09057 | 72.87735 | 51 ft | 0 kts | 90° |
| 2026-05-04 17:06 | 19.09057 | 72.87776 | 47 ft | 12 kts | 90° |
| 2026-05-04 17:06 | 19.09015 | 72.87810 | 51 ft | 7 kts | 200° |
| 2026-05-04 17:07 | 19.08997 | 72.87807 | 51 ft | 0 kts | 182° |
| 2026-05-04 17:07 | 19.08993 | 72.87807 | 51 ft | 2 kts | 182° |
| 2026-05-04 17:07 | 19.08901 | 72.87794 | 50 ft | 16 kts | 218° |
| 2026-05-04 17:07 | 19.08884 | 72.87705 | 50 ft | 0 kts | 268° |
| 2026-05-04 17:10 | 19.08878 | 72.87328 | 53 ft | 88 kts | 269° |
| 2026-05-04 17:10 | 19.08890 | 72.83628 | 1238 ft | 206 kts | 268° |
| 2026-05-04 17:11 | 19.08880 | 72.82176 | 2475 ft | 192 kts | 266° |
| 2026-05-04 17:11 | 19.08837 | 72.80752 | 3250 ft | 197 kts | 267° |
| 2026-05-04 17:11 | 19.08762 | 72.77670 | 4323 ft | 226 kts | 269° |
| 2026-05-04 17:12 | 19.08693 | 72.75952 | 4753 ft | 242 kts | 262° |
| 2026-05-04 17:12 | 19.06462 | 72.73444 | 6141 ft | 252 kts | 202° |
| 2026-05-04 17:13 | 19.01015 | 72.73435 | 7945 ft | 267 kts | 182° |
| 2026-05-04 17:14 | 18.95373 | 72.73582 | 8843 ft | 273 kts | 180° |
| 2026-05-04 17:14 | 18.93477 | 72.73651 | 8839 ft | 273 kts | 180° |
| 2026-05-04 17:14 | 18.89780 | 72.73802 | 8848 ft | 263 kts | 180° |
| 2026-05-04 17:15 | 18.87926 | 72.73873 | 8980 ft | 272 kts | 180° |
| 2026-05-04 17:15 | 18.84035 | 72.74026 | 9723 ft | 290 kts | 180° |
| 2026-05-04 17:16 | 18.79865 | 72.74172 | 10607 ft | 311 kts | 180° |
| 2026-05-04 17:16 | 18.73639 | 72.75711 | 11927 ft | 321 kts | 163° |
| 2026-05-04 17:17 | 18.71470 | 72.76462 | 12507 ft | 334 kts | 163° |
| 2026-05-04 17:17 | 18.64711 | 72.78809 | 14871 ft | 347 kts | 163° |
| 2026-05-04 17:18 | 18.62405 | 72.79609 | 15638 ft | 352 kts | 163° |
| 2026-05-04 17:18 | 18.57684 | 72.81249 | 17142 ft | 361 kts | 163° |
| 2026-05-04 17:19 | 18.52890 | 72.82912 | 18523 ft | 369 kts | 163° |
| 2026-05-04 17:19 | 18.47966 | 72.84620 | 19793 ft | 376 kts | 163° |
| 2026-05-04 17:20 | 18.42863 | 72.86389 | 20510 ft | 399 kts | 163° |
| 2026-05-04 17:20 | 18.37551 | 72.88229 | 21619 ft | 406 kts | 163° |
| 2026-05-04 17:20 | 18.34850 | 72.89164 | 22146 ft | 409 kts | 163° |
| 2026-05-04 17:21 | 18.29398 | 72.91051 | 23213 ft | 416 kts | 163° |
| 2026-05-04 17:21 | 18.23894 | 72.92954 | 24083 ft | 422 kts | 163° |
| 2026-05-04 17:22 | 18.21103 | 72.93918 | 24492 ft | 425 kts | 163° |
| 2026-05-04 17:22 | 18.18285 | 72.94893 | 24916 ft | 428 kts | 163° |
| 2026-05-04 17:23 | 18.09703 | 72.97857 | 25986 ft | 441 kts | 163° |
| 2026-05-04 17:23 | 18.06793 | 72.99024 | 26045 ft | 453 kts | 160° |
| 2026-05-04 17:23 | 18.00805 | 73.01468 | 26412 ft | 465 kts | 160° |
| 2026-05-04 17:24 | 17.97784 | 73.02689 | 26912 ft | 463 kts | 160° |
| 2026-05-04 17:24 | 17.88831 | 73.06300 | 28282 ft | 461 kts | 160° |
| 2026-05-04 17:25 | 17.85835 | 73.07508 | 28766 ft | 460 kts | 160° |
| 2026-05-04 17:25 | 17.79871 | 73.09911 | 29710 ft | 459 kts | 160° |
| 2026-05-04 17:26 | 17.73911 | 73.12310 | 30533 ft | 458 kts | 161° |
| 2026-05-04 17:26 | 17.65016 | 73.15886 | 31755 ft | 456 kts | 161° |
| 2026-05-04 17:27 | 17.59149 | 73.18244 | 32587 ft | 454 kts | 161° |
| 2026-05-04 17:27 | 17.53255 | 73.20611 | 33404 ft | 452 kts | 161° |
| 2026-05-04 17:28 | 17.47392 | 73.22963 | 34186 ft | 450 kts | 161° |
| 2026-05-04 17:29 | 17.38699 | 73.26449 | 35299 ft | 445 kts | 161° |
| 2026-05-04 17:29 | 17.30064 | 73.29907 | 36339 ft | 441 kts | 161° |
| 2026-05-04 17:30 | 17.21507 | 73.33331 | 36877 ft | 437 kts | 161° |
| 2026-05-04 17:31 | 17.15831 | 73.35601 | 36885 ft | 435 kts | 161° |
| 2026-05-04 17:31 | 17.07973 | 73.40380 | 36889 ft | 437 kts | 149° |
| 2026-05-04 17:32 | 17.02836 | 73.43770 | 36891 ft | 437 kts | 149° |
| 2026-05-04 17:33 | 16.92466 | 73.50630 | 36892 ft | 453 kts | 149° |
| 2026-05-04 17:34 | 16.84350 | 73.55993 | 36897 ft | 464 kts | 149° |
| 2026-05-04 17:34 | 16.82480 | 73.57074 | 36899 ft | 462 kts | 155° |
| 2026-05-04 17:35 | 16.68253 | 73.64831 | 36904 ft | 462 kts | 153° |
| 2026-05-04 17:36 | 16.61607 | 73.68493 | 36912 ft | 462 kts | 153° |
| 2026-05-04 17:36 | 16.55960 | 73.71603 | 36915 ft | 462 kts | 153° |
| 2026-05-04 17:37 | 16.50277 | 73.74731 | 36917 ft | 462 kts | 153° |
| 2026-05-04 17:37 | 16.45558 | 73.77326 | 36916 ft | 461 kts | 153° |
| 2026-05-04 17:38 | 16.39889 | 73.80434 | 36917 ft | 461 kts | 155° |
| 2026-05-04 17:38 | 16.34127 | 73.83357 | 36922 ft | 460 kts | 155° |
| 2026-05-04 17:39 | 16.24574 | 73.88230 | 36922 ft | 460 kts | 155° |
| 2026-05-04 17:39 | 16.19797 | 73.90658 | 36924 ft | 459 kts | 155° |
| 2026-05-04 17:40 | 16.14048 | 73.93556 | 36919 ft | 459 kts | 155° |
| 2026-05-04 17:40 | 16.08310 | 73.96448 | 36619 ft | 456 kts | 155° |
| 2026-05-04 17:41 | 16.05462 | 73.97883 | 36356 ft | 465 kts | 155° |
| 2026-05-04 17:41 | 16.02554 | 73.99348 | 36674 ft | 464 kts | 155° |
| 2026-05-04 17:41 | 15.99645 | 74.00812 | 36920 ft | 463 kts | 155° |
| 2026-05-04 17:41 | 15.96763 | 74.02263 | 36907 ft | 460 kts | 155° |
| 2026-05-04 17:42 | 15.91023 | 74.05151 | 36915 ft | 458 kts | 155° |
| 2026-05-04 17:42 | 15.85330 | 74.08013 | 36917 ft | 457 kts | 155° |
| 2026-05-04 17:43 | 15.79598 | 74.10893 | 36914 ft | 457 kts | 155° |
| 2026-05-04 17:43 | 15.73881 | 74.13764 | 36920 ft | 457 kts | 155° |
| 2026-05-04 17:44 | 15.68150 | 74.16640 | 36917 ft | 457 kts | 155° |
| 2026-05-04 17:44 | 15.62468 | 74.19490 | 36924 ft | 456 kts | 155° |
| 2026-05-04 17:45 | 15.56756 | 74.22352 | 36925 ft | 456 kts | 155° |
| 2026-05-04 17:45 | 15.51038 | 74.25217 | 36926 ft | 456 kts | 155° |
| 2026-05-04 17:46 | 15.45330 | 74.28074 | 36923 ft | 456 kts | 155° |
| 2026-05-04 17:46 | 15.39659 | 74.30911 | 36923 ft | 456 kts | 155° |
| 2026-05-04 17:47 | 15.33949 | 74.33766 | 36925 ft | 456 kts | 155° |
| 2026-05-04 17:47 | 15.28239 | 74.36619 | 36920 ft | 456 kts | 155° |
| 2026-05-04 17:48 | 15.22517 | 74.39476 | 36921 ft | 456 kts | 155° |
| 2026-05-04 17:48 | 15.16801 | 74.42329 | 36925 ft | 456 kts | 155° |
| 2026-05-04 17:49 | 15.11095 | 74.45180 | 36927 ft | 456 kts | 155° |
| 2026-05-04 17:49 | 15.05428 | 74.48031 | 36924 ft | 456 kts | 155° |
| 2026-05-04 17:50 | 14.99719 | 74.50901 | 36926 ft | 456 kts | 155° |
| 2026-05-04 17:50 | 14.94022 | 74.53762 | 36917 ft | 456 kts | 155° |
| 2026-05-04 17:51 | 14.88317 | 74.56627 | 36922 ft | 455 kts | 155° |
| 2026-05-04 17:51 | 14.82654 | 74.59468 | 36925 ft | 455 kts | 155° |
| 2026-05-04 17:52 | 14.76970 | 74.62318 | 36931 ft | 455 kts | 155° |
| 2026-05-04 17:52 | 14.71272 | 74.65173 | 36832 ft | 454 kts | 155° |
| 2026-05-04 17:53 | 14.68450 | 74.66587 | 36640 ft | 447 kts | 155° |
| 2026-05-04 17:53 | 14.65704 | 74.67963 | 36230 ft | 441 kts | 155° |
| 2026-05-04 17:53 | 14.62946 | 74.69344 | 35683 ft | 440 kts | 155° |
| 2026-05-04 17:53 | 14.60192 | 74.70722 | 35142 ft | 439 kts | 155° |
| 2026-05-04 17:54 | 14.57447 | 74.72095 | 34634 ft | 437 kts | 155° |
| 2026-05-04 17:54 | 14.54715 | 74.73462 | 34137 ft | 436 kts | 155° |
| 2026-05-04 17:54 | 14.51998 | 74.74821 | 33587 ft | 435 kts | 155° |
| 2026-05-04 17:54 | 14.49244 | 74.76108 | 32963 ft | 433 kts | 163° |
| 2026-05-04 17:55 | 14.46311 | 74.76683 | 32373 ft | 429 kts | 178° |
| 2026-05-04 17:55 | 14.43346 | 74.76924 | 31988 ft | 424 kts | 176° |
| 2026-05-04 17:55 | 14.40428 | 74.77189 | 31556 ft | 419 kts | 176° |
| 2026-05-04 17:55 | 14.37550 | 74.77432 | 31077 ft | 417 kts | 176° |
| 2026-05-04 17:56 | 14.34678 | 74.77664 | 30581 ft | 415 kts | 176° |
| 2026-05-04 17:56 | 14.31801 | 74.77891 | 30109 ft | 414 kts | 176° |
| 2026-05-04 17:56 | 14.28943 | 74.78116 | 29560 ft | 412 kts | 176° |
| 2026-05-04 17:56 | 14.26084 | 74.78340 | 29040 ft | 410 kts | 176° |
| 2026-05-04 17:57 | 14.23252 | 74.78562 | 28567 ft | 406 kts | 177° |
| 2026-05-04 17:57 | 14.20442 | 74.78783 | 28103 ft | 403 kts | 176° |
| 2026-05-04 17:57 | 14.17658 | 74.79001 | 27644 ft | 400 kts | 176° |
| 2026-05-04 17:57 | 14.14912 | 74.79216 | 27179 ft | 397 kts | 176° |
| 2026-05-04 17:58 | 14.12146 | 74.79433 | 26708 ft | 395 kts | 176° |
| 2026-05-04 17:58 | 14.09415 | 74.79646 | 26259 ft | 393 kts | 176° |
| 2026-05-04 17:58 | 14.06695 | 74.79859 | 25806 ft | 390 kts | 176° |
| 2026-05-04 17:58 | 14.04025 | 74.80068 | 25363 ft | 389 kts | 176° |
| 2026-05-04 17:59 | 14.01339 | 74.80278 | 24909 ft | 387 kts | 176° |
| 2026-05-04 17:59 | 13.98655 | 74.80488 | 24461 ft | 386 kts | 176° |
| 2026-05-04 17:59 | 13.93326 | 74.80905 | 23571 ft | 383 kts | 176° |
| 2026-05-04 18:00 | 13.90674 | 74.81113 | 23046 ft | 382 kts | 176° |
| 2026-05-04 18:00 | 13.88021 | 74.81320 | 22562 ft | 380 kts | 176° |
| 2026-05-04 18:00 | 13.85400 | 74.81525 | 22113 ft | 377 kts | 176° |
| 2026-05-04 18:00 | 13.82832 | 74.81725 | 21683 ft | 373 kts | 176° |
| 2026-05-04 18:01 | 13.80254 | 74.81927 | 21248 ft | 370 kts | 176° |
| 2026-05-04 18:01 | 13.77695 | 74.82127 | 20815 ft | 367 kts | 176° |
| 2026-05-04 18:01 | 13.75158 | 74.82325 | 20387 ft | 364 kts | 175° |
| 2026-05-04 18:02 | 13.70137 | 74.82717 | 19535 ft | 359 kts | 175° |
| 2026-05-04 18:02 | 13.67657 | 74.82910 | 19121 ft | 357 kts | 175° |
| 2026-05-04 18:02 | 13.65182 | 74.83103 | 18701 ft | 355 kts | 175° |
| 2026-05-04 18:02 | 13.62732 | 74.83294 | 18279 ft | 351 kts | 174° |
| 2026-05-04 18:03 | 13.60320 | 74.83482 | 17824 ft | 343 kts | 175° |
| 2026-05-04 18:03 | 13.57964 | 74.83665 | 17393 ft | 335 kts | 174° |
| 2026-05-04 18:03 | 13.55675 | 74.83843 | 17006 ft | 324 kts | 175° |
| 2026-05-04 18:03 | 13.53488 | 74.84014 | 16626 ft | 315 kts | 174° |
| 2026-05-04 18:04 | 13.51315 | 74.84183 | 16238 ft | 311 kts | 175° |
| 2026-05-04 18:04 | 13.49120 | 74.84354 | 15840 ft | 316 kts | 175° |
| 2026-05-04 18:04 | 13.44745 | 74.84695 | 15066 ft | 317 kts | 175° |
| 2026-05-04 18:05 | 13.42547 | 74.84866 | 14683 ft | 316 kts | 175° |
| 2026-05-04 18:05 | 13.40363 | 74.85036 | 14289 ft | 315 kts | 175° |
| 2026-05-04 18:05 | 13.38228 | 74.85202 | 13912 ft | 314 kts | 175° |
| 2026-05-04 18:05 | 13.36058 | 74.85371 | 13502 ft | 312 kts | 175° |
| 2026-05-04 18:06 | 13.31764 | 74.85705 | 12687 ft | 307 kts | 175° |
| 2026-05-04 18:06 | 13.29646 | 74.85869 | 12298 ft | 305 kts | 175° |
| 2026-05-04 18:06 | 13.27539 | 74.86033 | 11919 ft | 302 kts | 175° |
| 2026-05-04 18:07 | 13.25476 | 74.86194 | 11553 ft | 299 kts | 175° |
| 2026-05-04 18:07 | 13.23410 | 74.86354 | 11182 ft | 297 kts | 175° |
| 2026-05-04 18:07 | 13.21363 | 74.86513 | 10814 ft | 295 kts | 176° |
| 2026-05-04 18:07 | 13.19326 | 74.86671 | 10451 ft | 292 kts | 175° |
| 2026-05-04 18:08 | 13.17367 | 74.87134 | 10077 ft | 289 kts | 154° |
| 2026-05-04 18:08 | 13.15832 | 74.88402 | 9853 ft | 284 kts | 125° |
| 2026-05-04 18:08 | 13.15158 | 74.90274 | 9531 ft | 282 kts | 92° |
| 2026-05-04 18:08 | 13.15470 | 74.92237 | 9329 ft | 282 kts | 72° |
| 2026-05-04 18:09 | 13.16678 | 74.96099 | 9259 ft | 284 kts | 76° |
| 2026-05-04 18:09 | 13.17260 | 75.00081 | 9262 ft | 285 kts | 83° |
| 2026-05-04 18:10 | 13.17323 | 75.02098 | 9238 ft | 283 kts | 102° |
| 2026-05-04 18:10 | 13.16474 | 75.03858 | 9163 ft | 271 kts | 134° |
| 2026-05-04 18:10 | 13.15033 | 75.05035 | 8857 ft | 261 kts | 145° |
| 2026-05-04 18:10 | 13.13476 | 75.05942 | 8471 ft | 255 kts | 162° |
| 2026-05-04 18:11 | 13.11765 | 75.06329 | 8151 ft | 245 kts | 169° |
| 2026-05-04 18:11 | 13.10151 | 75.06648 | 7886 ft | 230 kts | 169° |
| 2026-05-04 18:11 | 13.08692 | 75.07122 | 7525 ft | 220 kts | 146° |
| 2026-05-04 18:11 | 13.07808 | 75.08335 | 7095 ft | 214 kts | 103° |
| 2026-05-04 18:12 | 13.07938 | 75.09805 | 6660 ft | 208 kts | 65° |
| 2026-05-04 18:12 | 13.08609 | 75.11093 | 6270 ft | 204 kts | 54° |
| 2026-05-04 18:12 | 13.09465 | 75.12242 | 5841 ft | 202 kts | 52° |
| 2026-05-04 18:12 | 13.10296 | 75.13396 | 5422 ft | 201 kts | 53° |
| 2026-05-04 18:13 | 13.11120 | 75.14552 | 5006 ft | 200 kts | 53° |
| 2026-05-04 18:13 | 13.11718 | 75.15817 | 4703 ft | 194 kts | 75° |
| 2026-05-04 18:13 | 13.11248 | 75.18319 | 3785 ft | 194 kts | 147° |
| 2026-05-04 18:14 | 13.09996 | 75.18619 | 3306 ft | 191 kts | 194° |
| 2026-05-04 18:14 | 13.08985 | 75.17888 | 3015 ft | 175 kts | 243° |
| 2026-05-04 18:14 | 13.08546 | 75.16700 | 3051 ft | 182 kts | 256° |
| 2026-05-04 18:15 | 13.08024 | 75.14098 | 3022 ft | 188 kts | 260° |
| 2026-05-04 18:15 | 13.07524 | 75.11485 | 2950 ft | 181 kts | 260° |
| 2026-05-04 18:15 | 13.07281 | 75.10230 | 2596 ft | 178 kts | 260° |
| 2026-05-04 18:16 | 13.07009 | 75.09001 | 2555 ft | 182 kts | 255° |
| 2026-05-04 18:16 | 13.06578 | 75.07762 | 2520 ft | 186 kts | 249° |
| 2026-05-04 18:16 | 13.06036 | 75.06556 | 2515 ft | 187 kts | 245° |
| 2026-05-04 18:17 | 13.04779 | 75.04223 | 2510 ft | 185 kts | 241° |
| 2026-05-04 18:17 | 13.04150 | 75.03148 | 2485 ft | 169 kts | 241° |
| 2026-05-04 18:17 | 13.02941 | 75.01115 | 2580 ft | 167 kts | 241° |
| 2026-05-04 18:18 | 13.02331 | 75.00096 | 2507 ft | 168 kts | 240° |
| 2026-05-04 18:18 | 13.01724 | 74.99085 | 2330 ft | 166 kts | 240° |
| 2026-05-04 18:18 | 13.01136 | 74.98108 | 2140 ft | 155 kts | 241° |
| 2026-05-04 18:18 | 13.00606 | 74.97226 | 1991 ft | 140 kts | 241° |
| 2026-05-04 18:19 | 12.99609 | 74.95566 | 1646 ft | 136 kts | 241° |
| 2026-05-04 18:19 | 12.99115 | 74.94742 | 1461 ft | 135 kts | 242° |
| 2026-05-04 18:19 | 12.98623 | 74.93924 | 1289 ft | 135 kts | 241° |
| 2026-05-04 18:20 | 12.98132 | 74.93105 | 1131 ft | 135 kts | 240° |
| 2026-05-04 18:20 | 12.97650 | 74.92305 | 958 ft | 134 kts | 240° |
| 2026-05-04 18:20 | 12.97155 | 74.91482 | 762 ft | 133 kts | 240° |
| 2026-05-04 18:20 | 12.96663 | 74.90666 | 623 ft | 137 kts | 238° |
| 2026-05-04 18:21 | 12.96151 | 74.89830 | 400 ft | 144 kts | 240° |
| 2026-05-04 18:21 | 12.95645 | 74.88974 | 373 ft | 132 kts | 237° |
| 2026-05-04 18:21 | 12.95161 | 74.88197 | 733 ft | 125 kts | 237° |
| 2026-05-04 18:21 | 12.94575 | 74.87477 | 1322 ft | 136 kts | 231° |
| 2026-05-04 18:22 | 12.94049 | 74.86770 | 2273 ft | 109 kts | 237° |
| 2026-05-04 18:22 | 12.93573 | 74.86071 | 2028 ft | 160 kts | 238° |
| 2026-05-04 18:22 | 12.92948 | 74.85099 | 2769 ft | 142 kts | 240° |
| 2026-05-04 18:22 | 12.92624 | 74.84280 | 3768 ft | 113 kts | 261° |
| 2026-05-04 18:23 | 12.92602 | 74.83460 | 3983 ft | 124 kts | 289° |
| 2026-05-04 18:23 | 12.93105 | 74.82700 | 3410 ft | 148 kts | 318° |
| 2026-05-04 18:23 | 12.94084 | 74.82126 | 2768 ft | 163 kts | 340° |
| 2026-05-04 18:23 | 12.95151 | 74.81906 | 3189 ft | 155 kts | 349° |
| 2026-05-04 18:24 | 12.96257 | 74.81703 | 3638 ft | 167 kts | 348° |
| 2026-05-04 18:24 | 12.97489 | 74.81595 | 3754 ft | 191 kts | 10° |
| 2026-05-04 18:24 | 12.98527 | 74.82333 | 3782 ft | 190 kts | 57° |
| 2026-05-04 18:24 | 12.99170 | 74.83557 | 3987 ft | 194 kts | 59° |
| 2026-05-04 18:25 | 12.99838 | 74.84787 | 4038 ft | 205 kts | 59° |
| 2026-05-04 18:25 | 13.00509 | 74.86006 | 4010 ft | 194 kts | 59° |
| 2026-05-04 18:25 | 13.01172 | 74.87208 | 4010 ft | 195 kts | 59° |
| 2026-05-04 18:25 | 13.01853 | 74.88429 | 4028 ft | 198 kts | 57° |
| 2026-05-04 18:26 | 13.02583 | 74.89628 | 4028 ft | 198 kts | 56° |
| 2026-05-04 18:26 | 13.03322 | 74.90820 | 4023 ft | 199 kts | 56° |
| 2026-05-04 18:26 | 13.04066 | 74.92017 | 4019 ft | 199 kts | 55° |
| 2026-05-04 18:26 | 13.04808 | 74.93210 | 3997 ft | 198 kts | 56° |
| 2026-05-04 18:27 | 13.05547 | 74.94387 | 4018 ft | 198 kts | 56° |
| 2026-05-04 18:27 | 13.06285 | 74.95565 | 3963 ft | 192 kts | 56° |
| 2026-05-04 18:27 | 13.06985 | 74.96685 | 3600 ft | 183 kts | 56° |
| 2026-05-04 18:27 | 13.07673 | 74.97794 | 3119 ft | 198 kts | 56° |
| 2026-05-04 18:28 | 13.08476 | 74.99081 | 3041 ft | 226 kts | 56° |
| 2026-05-04 18:28 | 13.09393 | 75.00539 | 2898 ft | 259 kts | 56° |
| 2026-05-04 18:28 | 13.10361 | 75.02074 | 2615 ft | 245 kts | 56° |
| 2026-05-04 18:28 | 13.11194 | 75.03450 | 2579 ft | 209 kts | 62° |
| 2026-05-04 18:29 | 13.11413 | 75.04763 | 2530 ft | 182 kts | 104° |
| 2026-05-04 18:29 | 13.10670 | 75.05748 | 2486 ft | 173 kts | 154° |
| 2026-05-04 18:29 | 13.09575 | 75.06240 | 2594 ft | 176 kts | 159° |
| 2026-05-04 18:29 | 13.08447 | 75.06728 | 2584 ft | 176 kts | 159° |
| 2026-05-04 18:30 | 13.06192 | 75.07702 | 2548 ft | 176 kts | 159° |
| 2026-05-04 18:30 | 13.05057 | 75.08175 | 2520 ft | 176 kts | 165° |
| 2026-05-04 18:30 | 13.03910 | 75.08057 | 2423 ft | 166 kts | 217° |
| 2026-05-04 18:31 | 13.03383 | 75.07088 | 2443 ft | 158 kts | 271° |
| 2026-05-04 18:31 | 13.03493 | 75.05949 | 2579 ft | 163 kts | 277° |
| 2026-05-04 18:31 | 13.03610 | 75.04788 | 2563 ft | 163 kts | 275° |
| 2026-05-04 18:31 | 13.03697 | 75.03643 | 2546 ft | 164 kts | 275° |
| 2026-05-04 18:32 | 13.03623 | 75.02491 | 2475 ft | 164 kts | 248° |
| 2026-05-04 18:32 | 13.03046 | 75.01470 | 2537 ft | 166 kts | 243° |
| 2026-05-04 18:32 | 13.02485 | 75.00429 | 2533 ft | 167 kts | 242° |
| 2026-05-04 18:32 | 13.01902 | 74.99404 | 2415 ft | 164 kts | 241° |
| 2026-05-04 18:33 | 13.01309 | 74.98401 | 2229 ft | 165 kts | 240° |
| 2026-05-04 18:33 | 13.00708 | 74.97396 | 2024 ft | 165 kts | 240° |
| 2026-05-04 18:33 | 13.00108 | 74.96396 | 1817 ft | 162 kts | 240° |
| 2026-05-04 18:33 | 12.99555 | 74.95478 | 1632 ft | 142 kts | 241° |
| 2026-05-04 18:34 | 12.99051 | 74.94635 | 1449 ft | 135 kts | 241° |
| 2026-05-04 18:34 | 12.98568 | 74.93832 | 1275 ft | 134 kts | 241° |
| 2026-05-04 18:34 | 12.98080 | 74.93018 | 1110 ft | 134 kts | 240° |
| 2026-05-04 18:34 | 12.97587 | 74.92200 | 941 ft | 137 kts | 240° |
| 2026-05-04 18:35 | 12.97093 | 74.91379 | 738 ft | 134 kts | 240° |
| 2026-05-04 18:35 | 12.96609 | 74.90574 | 575 ft | 135 kts | 239° |
| 2026-05-04 18:35 | 12.96117 | 74.89757 | 375 ft | 134 kts | 239° |
| 2026-05-04 18:35 | 12.95670 | 74.89015 | 325 ft | 95 kts | 238° |
| 2026-05-04 18:36 | 12.95437 | 74.88630 | 321 ft | 48 kts | 238° |
| 2026-05-04 18:36 | 12.95256 | 74.88331 | 326 ft | 50 kts | 238° |
| 2026-05-04 18:36 | 12.95116 | 74.88098 | 326 ft | 21 kts | 240° |
| 2026-05-04 18:36 | 12.95150 | 74.88038 | 326 ft | 11 kts | 329° |
| 2026-05-04 18:37 | 12.95220 | 74.87987 | 325 ft | 11 kts | 307° |
| 2026-05-04 18:37 | 12.95196 | 74.87918 | 325 ft | 12 kts | 236° |
| 2026-05-04 18:37 | 12.95148 | 74.87836 | 325 ft | 15 kts | 239° |
| 2026-05-04 18:37 | 12.95090 | 74.87738 | 326 ft | 17 kts | 237° |
| 2026-05-04 18:38 | 12.95020 | 74.87628 | 326 ft | 17 kts | 239° |
| 2026-05-04 18:38 | 12.95024 | 74.87538 | 326 ft | 12 kts | 265° |
| 2026-05-04 18:38 | 12.94981 | 74.87458 | 326 ft | 14 kts | 237° |
| 2026-05-04 18:38 | 12.94929 | 74.87374 | 324 ft | 14 kts | 238° |
| 2026-05-04 18:39 | 12.94880 | 74.87293 | 326 ft | 13 kts | 238° |
| 2026-05-04 18:39 | 12.94868 | 74.87253 | 324 ft | 1 kts | 318° |
| 2026-05-04 18:39 | 12.94884 | 74.87252 | 326 ft | 5 kts | 359° |
| 2026-05-04 18:39 | 12.94931 | 74.87250 | 326 ft | 8 kts | 356° |
| 2026-05-04 18:40 | 12.94947 | 74.87249 | 326 ft | 2 kts | 356° |
| 2026-05-04 18:40 | 12.94946 | 74.87249 | 326 ft | 7 kts | 356° |
| 2026-05-04 18:40 | 12.94944 | 74.87249 | 326 ft | 0 kts | 356° |